Time;durP1;ratioP1;P1;durP2;ratioP2;P2;SDS_P1;SDS_P2;PMS_P1;PMS_P2;Temp;Humidity;BMP_temperature;BMP_pressure;BME280_temperature;BME280_humidity;BME280_pressure;Samples;Min_cycle;Max_cycle;Signal;HPM_P1;HPM_P2
2022/01/27 00:05:18;;;;;;;60.60;28.77;;;5.10;94.40;;;;;;5042454;28;20576;-93
2022/01/27 00:07:45;;;;;;;78.83;34.87;;;5.10;94.30;;;;;;5039212;28;20263;-93
2022/01/27 00:12:37;;;;;;;70.90;32.63;;;5.10;94.30;;;;;;5040607;28;20182;-93
2022/01/27 00:15:14;;;;;;;85.67;33.00;;;5.10;94.30;;;;;;5038477;28;20183;-93
2022/01/27 00:17:48;;;;;;;86.10;40.97;;;5.10;94.40;;;;;;5036431;28;20617;-93
2022/01/27 00:20:15;;;;;;;68.57;32.97;;;5.00;94.40;;;;;;5035994;28;20182;-93
2022/01/27 00:22:42;;;;;;;79.40;34.27;;;5.00;94.50;;;;;;5035923;28;20180;-93
2022/01/27 00:25:09;;;;;;;83.13;37.60;;;5.00;94.40;;;;;;5036992;28;20184;-93
2022/01/27 00:27:35;;;;;;;65.07;30.93;;;5.10;94.40;;;;;;5035237;28;20206;-93
2022/01/27 00:30:07;;;;;;;66.17;30.30;;;5.10;94.30;;;;;;5038161;28;20203;-93
2022/01/27 00:32:33;;;;;;;58.23;28.60;;;5.10;94.10;;;;;;5035473;28;20187;-93
2022/01/27 00:34:59;;;;;;;73.83;38.07;;;5.20;94.00;;;;;;5038054;28;20663;-93
2022/01/27 00:37:25;;;;;;;89.33;40.50;;;5.10;93.90;;;;;;5043009;28;20211;-94
2022/01/27 00:39:51;;;;;;;79.60;35.43;;;5.20;93.80;;;;;;5041303;28;20201;-93
2022/01/27 00:42:17;;;;;;;68.93;34.60;;;5.20;93.80;;;;;;5038133;28;20245;-94
2022/01/27 00:44:43;;;;;;;69.67;34.63;;;5.20;93.60;;;;;;5037103;28;20234;-92
2022/01/27 00:47:08;;;;;;;74.77;38.00;;;5.20;93.50;;;;;;5032362;28;20251;-92
2022/01/27 00:49:36;;;;;;;72.93;37.87;;;5.20;93.40;;;;;;5032586;28;20266;-92
2022/01/27 00:52:03;;;;;;;50.10;27.13;;;5.30;93.40;;;;;;5033451;28;20660;-92
2022/01/27 00:54:30;;;;;;;69.50;34.37;;;5.30;93.40;;;;;;5033775;28;20636;-92
2022/01/27 00:57:06;;;;;;;80.53;40.97;;;5.30;93.40;;;;;;5032287;28;20234;-92
2022/01/27 00:59:46;;;;;;;65.60;31.40;;;5.30;93.50;;;;;;5032241;28;20612;-92
2022/01/27 01:02:36;;;;;;;71.43;36.27;;;5.30;93.50;;;;;;5033581;28;20163;-92
2022/01/27 01:06:09;;;;;;;76.83;41.60;;;5.30;93.50;;;;;;5033314;28;20665;-92
2022/01/27 01:07:56;;;;;;;66.37;32.77;;;5.30;93.50;;;;;;5038761;28;20211;-94
2022/01/27 01:11:09;;;;;;;68.17;35.63;;;5.30;93.50;;;;;;5052700;28;20199;-94
2022/01/27 01:15:47;;;;;;;73.63;35.33;;;5.30;93.50;;;;;;5050584;28;20175;-93
2022/01/27 01:18:31;;;;;;;49.13;25.70;;;5.30;93.40;;;;;;5035341;28;20298;-92
2022/01/27 01:21:24;;;;;;;80.63;43.07;;;5.30;93.30;;;;;;5032259;28;20528;-92
2022/01/27 01:32:17;;;;;;;82.37;41.20;;;5.30;93.00;;;;;;5025314;28;20214;-92
2022/01/27 01:34:47;;;;;;;56.13;30.83;;;5.30;93.00;;;;;;5034596;28;20700;-92
2022/01/27 01:37:17;;;;;;;63.13;33.10;;;5.40;92.90;;;;;;5037097;28;20180;-92
2022/01/27 01:39:42;;;;;;;71.20;36.43;;;5.40;92.60;;;;;;5037547;28;20598;-92
2022/01/27 01:42:10;;;;;;;61.57;33.33;;;5.40;92.60;;;;;;5044011;28;20184;-93
2022/01/27 01:44:37;;;;;;;68.40;38.77;;;5.30;92.40;;;;;;5042782;28;20188;-93
2022/01/27 01:47:04;;;;;;;56.53;28.70;;;5.30;92.30;;;;;;5043533;28;20187;-94
2022/01/27 01:49:29;;;;;;;67.97;33.03;;;5.30;92.10;;;;;;5044727;28;20234;-93
2022/01/27 01:51:57;;;;;;;52.60;30.13;;;5.30;92.20;;;;;;5043121;28;20640;-93
2022/01/27 01:54:23;;;;;;;45.93;28.40;;;5.30;92.00;;;;;;5042829;28;20278;-93
2022/01/27 01:56:49;;;;;;;60.33;33.43;;;5.40;91.40;;;;;;5049448;28;20179;-93
2022/01/27 01:59:15;;;;;;;57.57;32.47;;;5.40;91.50;;;;;;5053825;28;20218;-94
2022/01/27 02:01:41;;;;;;;41.40;23.47;;;5.30;91.50;;;;;;5054211;28;20166;-94
2022/01/27 02:04:10;;;;;;;47.07;26.03;;;5.30;91.50;;;;;;5053914;28;20203;-93
2022/01/27 02:06:44;;;;;;;53.50;32.50;;;5.30;91.50;;;;;;5052434;28;20182;-94
2022/01/27 02:19:59;;;;;;;44.10;23.57;;;5.30;91.10;;;;;;5039391;28;20251;-94
2022/01/27 02:22:25;;;;;;;53.67;31.07;;;5.40;91.10;;;;;;5053854;28;20548;-93
2022/01/27 02:24:51;;;;;;;45.17;24.43;;;5.30;91.00;;;;;;5053627;28;20190;-93
2022/01/27 02:27:18;;;;;;;50.10;29.83;;;5.30;90.80;;;;;;5055509;28;20182;-93
2022/01/27 02:29:45;;;;;;;52.67;23.27;;;5.30;91.30;;;;;;5055335;28;20220;-94
2022/01/27 02:32:12;;;;;;;46.33;26.70;;;5.30;91.10;;;;;;5054824;28;20183;-93
2022/01/27 02:34:39;;;;;;;52.50;30.53;;;5.30;91.00;;;;;;5055021;28;20180;-93
2022/01/27 02:37:05;;;;;;;47.87;27.33;;;5.30;90.90;;;;;;5054382;28;20169;-94
2022/01/27 02:39:31;;;;;;;47.37;26.33;;;5.30;90.70;;;;;;5052046;28;20210;-93
2022/01/27 02:42:06;;;;;;;55.00;29.50;;;5.30;90.70;;;;;;5051248;28;20183;-94
2022/01/27 02:44:53;;;;;;;59.77;35.43;;;5.30;90.60;;;;;;5053150;28;20251;-93
2022/01/27 02:47:20;;;;;;;56.03;31.03;;;5.30;90.80;;;;;;5052850;28;20171;-93
2022/01/27 02:49:46;;;;;;;50.17;31.30;;;5.30;90.80;;;;;;5055095;28;20261;-93
2022/01/27 02:52:12;;;;;;;43.33;24.30;;;5.30;90.40;;;;;;5054513;28;20175;-94
2022/01/27 02:54:38;;;;;;;51.50;30.77;;;5.30;90.40;;;;;;5054704;28;20628;-93
2022/01/27 02:57:04;;;;;;;50.50;24.53;;;5.30;90.10;;;;;;5057135;28;20178;-93
2022/01/27 02:59:30;;;;;;;46.57;24.73;;;5.30;90.40;;;;;;5055661;28;20222;-93
2022/01/27 03:01:56;;;;;;;43.80;21.90;;;5.30;90.50;;;;;;5053443;28;20191;-94
2022/01/27 03:04:22;;;;;;;54.97;30.37;;;5.30;90.10;;;;;;5055133;28;20164;-93
2022/01/27 03:06:48;;;;;;;43.73;26.77;;;5.30;90.20;;;;;;5055886;28;20186;-93
2022/01/27 03:09:15;;;;;;;34.90;22.77;;;5.30;90.20;;;;;;5054174;28;20211;-93
2022/01/27 03:11:44;;;;;;;50.00;27.90;;;5.30;90.40;;;;;;5055217;28;20159;-93
2022/01/27 03:14:11;;;;;;;57.57;31.43;;;5.30;90.30;;;;;;5054075;28;20171;-93
2022/01/27 03:16:37;;;;;;;50.60;28.23;;;5.30;90.40;;;;;;5053086;28;20211;-93
2022/01/27 03:19:03;;;;;;;67.57;35.57;;;5.30;90.40;;;;;;5050775;28;20210;-93
2022/01/27 03:21:29;;;;;;;62.90;30.50;;;5.30;90.50;;;;;;5051043;28;20180;-93
2022/01/27 03:23:54;;;;;;;44.17;19.87;;;5.30;90.80;;;;;;5049776;28;20269;-93
2022/01/27 03:26:21;;;;;;;57.83;32.07;;;5.20;91.20;;;;;;5050664;28;20274;-93
2022/01/27 03:28:47;;;;;;;52.80;26.43;;;5.20;91.50;;;;;;5051425;28;20197;-93
2022/01/27 03:31:16;;;;;;;51.00;26.87;;;5.20;91.80;;;;;;5052111;28;20269;-93
2022/01/27 03:33:43;;;;;;;58.93;31.47;;;5.10;92.00;;;;;;5052101;28;20174;-91
2022/01/27 03:36:09;;;;;;;53.03;25.60;;;5.10;92.30;;;;;;5053398;28;20174;-94
2022/01/27 03:38:35;;;;;;;73.43;36.90;;;5.00;92.50;;;;;;5056184;28;20208;-94
2022/01/27 03:41:05;;;;;;;64.50;32.60;;;5.00;92.80;;;;;;5057792;28;20178;-91
2022/01/27 03:43:31;;;;;;;48.37;28.00;;;5.00;92.90;;;;;;5059365;28;20157;-93
2022/01/27 03:45:57;;;;;;;64.07;35.10;;;5.00;93.10;;;;;;5059533;28;20197;-92
2022/01/27 03:48:22;;;;;;;54.43;27.03;;;4.90;93.30;;;;;;5058996;28;20201;-93
2022/01/27 03:50:48;;;;;;;69.77;38.77;;;4.90;93.40;;;;;;5058499;28;20205;-92
2022/01/27 03:53:15;;;;;;;58.13;32.40;;;4.90;93.40;;;;;;5058442;28;20176;-94
2022/01/27 03:55:42;;;;;;;68.97;37.27;;;4.80;93.50;;;;;;5058712;28;20222;-93
2022/01/27 03:58:08;;;;;;;59.87;33.13;;;4.80;93.60;;;;;;5057354;28;20221;-94
2022/01/27 04:00:35;;;;;;;47.20;27.77;;;4.80;93.60;;;;;;5057638;28;20250;-94
2022/01/27 04:03:06;;;;;;;50.93;25.90;;;4.90;93.70;;;;;;5057923;28;20186;-93
2022/01/27 04:05:37;;;;;;;48.07;28.33;;;4.90;93.60;;;;;;5057896;28;20169;-92
2022/01/27 04:08:05;;;;;;;55.90;29.97;;;4.80;93.60;;;;;;5056510;28;20209;-94
2022/01/27 04:10:31;;;;;;;48.60;30.20;;;4.90;93.60;;;;;;5056844;28;20272;-93
2022/01/27 04:12:57;;;;;;;51.57;28.20;;;4.90;93.50;;;;;;5057482;28;20175;-92
2022/01/27 04:15:23;;;;;;;45.97;27.03;;;4.90;93.40;;;;;;5057765;28;20183;-93
2022/01/27 04:17:48;;;;;;;58.90;35.13;;;4.80;93.50;;;;;;5057521;28;20190;-94
2022/01/27 04:20:14;;;;;;;60.10;31.47;;;4.90;93.50;;;;;;5058401;28;20149;-93
2022/01/27 04:22:40;;;;;;;60.93;37.03;;;4.80;93.60;;;;;;5058355;28;20191;-94
2022/01/27 04:25:06;;;;;;;59.00;30.27;;;4.90;93.70;;;;;;5058206;28;20232;-94
2022/01/27 04:27:35;;;;;;;58.17;34.50;;;4.80;93.80;;;;;;5056874;28;20192;-93
2022/01/27 04:30:04;;;;;;;63.80;33.10;;;4.90;93.70;;;;;;5057182;28;20197;-94
2022/01/27 04:32:36;;;;;;;60.50;33.10;;;4.90;93.70;;;;;;5056726;28;20257;-94
2022/01/27 04:35:05;;;;;;;58.33;32.57;;;4.90;93.70;;;;;;5055681;28;20151;-94
2022/01/27 04:37:35;;;;;;;60.10;37.00;;;4.90;93.70;;;;;;5056344;28;20258;-94
2022/01/27 04:40:08;;;;;;;50.03;28.37;;;4.90;93.60;;;;;;5056164;28;20180;-93
2022/01/27 04:42:48;;;;;;;58.70;29.40;;;4.90;93.40;;;;;;5056858;28;20176;-93
2022/01/27 04:45:16;;;;;;;49.37;28.67;;;4.80;93.50;;;;;;5057627;28;20181;-92
2022/01/27 04:47:46;;;;;;;42.67;23.20;;;4.90;93.70;;;;;;5057456;28;20234;-92
2022/01/27 04:50:12;;;;;;;53.57;29.30;;;4.80;93.70;;;;;;5056502;28;20190;-91
2022/01/27 04:52:43;;;;;;;57.90;33.70;;;4.80;93.70;;;;;;5055551;28;20261;-92
2022/01/27 04:55:11;;;;;;;51.53;27.70;;;4.80;93.70;;;;;;5057411;28;20184;-92
2022/01/27 04:57:40;;;;;;;43.60;26.43;;;4.90;93.80;;;;;;5056463;28;20229;-93
2022/01/27 05:00:07;;;;;;;50.50;26.73;;;4.90;93.80;;;;;;5055779;28;20166;-92
2022/01/27 05:02:46;;;;;;;50.60;29.87;;;4.80;93.90;;;;;;5056413;28;20183;-93
2022/01/27 05:05:11;;;;;;;35.73;21.77;;;4.80;94.00;;;;;;5056806;28;20153;-91
2022/01/27 05:07:38;;;;;;;49.67;27.63;;;4.80;93.90;;;;;;5056649;28;20203;-91
2022/01/27 05:10:11;;;;;;;59.97;32.53;;;4.80;94.00;;;;;;5060927;28;20226;-92
2022/01/27 05:12:45;;;;;;;56.63;33.67;;;4.80;94.10;;;;;;5060838;28;20178;-90
2022/01/27 05:15:11;;;;;;;53.00;31.07;;;4.80;94.10;;;;;;5059655;28;20258;-92
2022/01/27 05:17:37;;;;;;;44.97;24.70;;;4.80;94.00;;;;;;5059752;28;20182;-91
2022/01/27 05:20:04;;;;;;;51.90;30.53;;;4.80;94.00;;;;;;5061328;28;20162;-91
2022/01/27 05:22:31;;;;;;;46.53;28.57;;;4.80;93.90;;;;;;5061070;28;20182;-91
2022/01/27 05:24:57;;;;;;;45.53;26.80;;;4.80;93.90;;;;;;5060387;28;20174;-91
2022/01/27 05:27:23;;;;;;;49.43;30.57;;;4.80;93.90;;;;;;5060476;28;20199;-90
2022/01/27 05:29:48;;;;;;;28.40;19.13;;;4.80;93.90;;;;;;5060010;28;20197;-92
2022/01/27 05:32:14;;;;;;;32.63;21.00;;;4.80;93.90;;;;;;5059789;28;20201;-92
2022/01/27 05:34:40;;;;;;;35.00;20.23;;;4.80;93.90;;;;;;5058079;28;20173;-92
2022/01/27 05:37:05;;;;;;;40.13;24.10;;;4.80;93.90;;;;;;5058228;28;20183;-92
2022/01/27 05:39:31;;;;;;;36.17;23.03;;;4.80;93.90;;;;;;5060721;28;20172;-92
2022/01/27 05:41:57;;;;;;;35.30;21.70;;;4.80;94.00;;;;;;5059769;28;20174;-92
2022/01/27 05:44:22;;;;;;;37.63;23.10;;;4.90;93.90;;;;;;5060348;28;20257;-91
2022/01/27 05:46:48;;;;;;;34.33;22.03;;;4.90;93.80;;;;;;5059716;28;20192;-91
2022/01/27 05:49:13;;;;;;;29.20;18.43;;;4.80;93.80;;;;;;5059114;28;20201;-91
2022/01/27 05:51:39;;;;;;;22.50;15.23;;;4.80;93.80;;;;;;5059820;28;20246;-92
2022/01/27 05:54:05;;;;;;;33.03;18.93;;;4.90;94.00;;;;;;5058818;28;20189;-92
2022/01/27 05:56:30;;;;;;;29.63;16.17;;;4.80;94.00;;;;;;5057722;28;20178;-92
2022/01/27 05:58:56;;;;;;;39.93;24.87;;;4.90;94.00;;;;;;5059199;28;20190;-91
2022/01/27 06:01:22;;;;;;;38.83;23.20;;;4.80;94.00;;;;;;5060945;28;20167;-92
2022/01/27 06:03:47;;;;;;;26.57;16.97;;;4.90;94.10;;;;;;5059187;28;20215;-92
2022/01/27 06:06:13;;;;;;;37.13;24.77;;;4.90;94.00;;;;;;5058627;28;20207;-92
2022/01/27 06:08:39;;;;;;;31.27;19.50;;;4.90;94.00;;;;;;5058993;28;20198;-92
2022/01/27 06:11:05;;;;;;;37.47;22.77;;;4.90;94.00;;;;;;5057415;28;20209;-92
2022/01/27 06:13:31;;;;;;;34.87;22.47;;;4.90;94.10;;;;;;5058735;28;20172;-92
2022/01/27 06:15:57;;;;;;;27.87;17.70;;;4.90;94.00;;;;;;5058519;28;20201;-92
2022/01/27 06:18:23;;;;;;;35.93;24.57;;;4.90;94.00;;;;;;5057917;28;20214;-92
2022/01/27 06:20:49;;;;;;;26.10;17.90;;;4.90;94.20;;;;;;5057173;28;20189;-92
2022/01/27 06:23:14;;;;;;;32.47;19.97;;;5.00;94.20;;;;;;5055649;28;20179;-92
2022/01/27 06:25:40;;;;;;;38.33;22.87;;;5.00;94.00;;;;;;5055918;28;20201;-91
2022/01/27 06:28:06;;;;;;;32.63;21.60;;;5.00;94.00;;;;;;5056920;28;20205;-92
2022/01/27 06:30:35;;;;;;;27.27;17.53;;;5.00;94.00;;;;;;5055216;28;20210;-92
2022/01/27 06:33:09;;;;;;;40.00;25.30;;;5.00;94.00;;;;;;5057837;28;20167;-92
2022/01/27 06:35:35;;;;;;;32.30;18.67;;;5.00;94.20;;;;;;5055457;28;20177;-92
2022/01/27 06:38:01;;;;;;;35.20;18.73;;;5.00;94.30;;;;;;5055936;28;20286;-92
2022/01/27 06:40:26;;;;;;;36.50;21.77;;;5.00;94.40;;;;;;5056684;28;20164;-92
2022/01/27 06:42:52;;;;;;;30.43;20.00;;;5.00;94.50;;;;;;5058901;28;20189;-93
2022/01/27 06:45:18;;;;;;;29.03;16.67;;;5.00;94.50;;;;;;5057806;28;20172;-92
2022/01/27 06:47:43;;;;;;;37.60;23.13;;;5.00;94.60;;;;;;5058120;28;20185;-92
2022/01/27 06:50:09;;;;;;;32.33;19.80;;;5.00;94.70;;;;;;5056642;28;20210;-92
2022/01/27 06:52:35;;;;;;;30.93;20.17;;;5.00;94.70;;;;;;5057869;28;20250;-92
2022/01/27 06:55:03;;;;;;;32.07;21.33;;;5.00;94.70;;;;;;5055821;28;20196;-92
2022/01/27 06:57:28;;;;;;;41.23;24.27;;;5.00;94.70;;;;;;5056156;28;20183;-91
2022/01/27 06:59:54;;;;;;;34.40;21.03;;;5.00;94.70;;;;;;5055041;28;20253;-91
2022/01/27 07:02:20;;;;;;;31.90;19.53;;;5.10;94.70;;;;;;5055138;28;20169;-92
2022/01/27 07:04:45;;;;;;;35.00;17.87;;;5.00;94.70;;;;;;5052741;28;20256;-92
2022/01/27 07:07:12;;;;;;;35.63;20.40;;;5.10;94.70;;;;;;5055940;28;20256;-91
2022/01/27 07:09:39;;;;;;;27.57;17.33;;;5.10;94.70;;;;;;5054773;28;20207;-92
2022/01/27 07:12:05;;;;;;;33.73;20.63;;;5.10;94.70;;;;;;5055084;28;20176;-91
2022/01/27 07:14:33;;;;;;;35.73;17.63;;;5.10;94.70;;;;;;5054379;28;20176;-92
2022/01/27 07:16:59;;;;;;;28.67;15.97;;;5.10;94.70;;;;;;5052621;28;20204;-92
2022/01/27 07:19:25;;;;;;;33.53;22.33;;;5.10;94.60;;;;;;5055626;28;20204;-91
2022/01/27 07:21:50;;;;;;;28.07;18.47;;;5.10;94.70;;;;;;5054836;28;20166;-92
2022/01/27 07:24:16;;;;;;;31.83;20.07;;;5.10;94.70;;;;;;5055127;28;20241;-92
2022/01/27 07:26:42;;;;;;;35.90;19.80;;;5.10;94.80;;;;;;5057719;28;20187;-89
2022/01/27 07:29:07;;;;;;;38.53;24.20;;;5.10;94.90;;;;;;5059654;28;20179;-91
2022/01/27 07:31:33;;;;;;;19.67;11.97;;;5.10;95.00;;;;;;5059596;28;20239;-91
2022/01/27 07:33:59;;;;;;;32.00;17.00;;;5.10;95.00;;;;;;5059663;28;20199;-90
2022/01/27 07:36:25;;;;;;;34.43;22.67;;;5.20;94.90;;;;;;5056552;28;20182;-91
2022/01/27 07:38:50;;;;;;;28.93;17.03;;;5.20;94.80;;;;;;5058926;28;20270;-91
2022/01/27 07:41:17;;;;;;;28.07;18.27;;;5.10;94.90;;;;;;5056790;28;20175;-92
2022/01/27 07:43:44;;;;;;;29.97;17.40;;;5.20;94.80;;;;;;5056592;28;20184;-92
2022/01/27 07:46:13;;;;;;;27.27;16.23;;;5.20;94.80;;;;;;5055653;28;20177;-91
2022/01/27 07:48:42;;;;;;;27.83;15.87;;;5.20;94.80;;;;;;5057953;28;20198;-91
2022/01/27 07:51:09;;;;;;;28.77;17.40;;;5.30;94.70;;;;;;5058341;28;20198;-91
2022/01/27 07:53:37;;;;;;;32.13;16.77;;;5.30;94.70;;;;;;5058263;28;20219;-92
2022/01/27 07:56:04;;;;;;;27.57;18.10;;;5.20;94.70;;;;;;5057315;28;20190;-92
2022/01/27 07:58:31;;;;;;;25.37;17.20;;;5.30;94.60;;;;;;5058431;28;20214;-92
2022/01/27 08:00:57;;;;;;;29.87;17.90;;;5.30;94.60;;;;;;5053932;28;20181;-92
2022/01/27 08:03:23;;;;;;;29.07;18.87;;;5.30;94.70;;;;;;5051161;28;20175;-91
2022/01/27 08:05:49;;;;;;;27.83;18.03;;;5.40;94.60;;;;;;5056870;28;20203;-90
2022/01/27 08:08:15;;;;;;;29.80;15.93;;;5.30;94.50;;;;;;5058976;28;20210;-87
2022/01/27 08:10:40;;;;;;;27.07;15.93;;;5.30;94.50;;;;;;5057839;28;20214;-91
2022/01/27 08:13:08;;;;;;;17.63;11.70;;;5.30;94.60;;;;;;5058759;28;20194;-90
2022/01/27 08:15:33;;;;;;;21.20;14.03;;;5.30;94.60;;;;;;5058568;28;20209;-91
2022/01/27 08:17:59;;;;;;;17.60;12.30;;;5.40;94.60;;;;;;5058481;28;20181;-91
2022/01/27 08:20:26;;;;;;;27.40;17.70;;;5.40;94.60;;;;;;5057686;28;20155;-89
2022/01/27 08:22:53;;;;;;;20.80;14.60;;;5.40;94.70;;;;;;5058312;28;20152;-91
2022/01/27 08:25:21;;;;;;;26.63;17.63;;;5.40;94.80;;;;;;5058801;28;20161;-90
2022/01/27 08:27:50;;;;;;;23.30;14.67;;;5.40;94.80;;;;;;5058725;28;20258;-89
2022/01/27 08:30:18;;;;;;;28.63;17.47;;;5.50;94.80;;;;;;5058705;28;20202;-90
2022/01/27 08:35:14;;;;;;;28.50;17.83;;;5.40;94.90;;;;;;5058288;28;20182;-91
2022/01/27 08:37:40;;;;;;;22.63;12.63;;;5.50;94.90;;;;;;5057830;28;20188;-90
2022/01/27 08:40:07;;;;;;;24.27;15.17;;;5.50;95.00;;;;;;5056983;28;20178;-91
2022/01/27 08:42:32;;;;;;;26.07;15.73;;;5.50;95.00;;;;;;5057822;28;20248;-90
2022/01/27 08:44:58;;;;;;;20.47;13.37;;;5.60;95.00;;;;;;5058057;28;20171;-90
2022/01/27 08:47:24;;;;;;;20.57;14.27;;;5.60;94.90;;;;;;5058032;28;20167;-90
2022/01/27 08:49:50;;;;;;;20.13;12.10;;;5.60;94.90;;;;;;5057858;28;20206;-90
2022/01/27 08:52:15;;;;;;;23.80;14.90;;;5.60;94.90;;;;;;5058251;28;20184;-90
2022/01/27 08:54:42;;;;;;;21.40;14.97;;;5.70;94.90;;;;;;5058239;28;20156;-90
2022/01/27 08:57:08;;;;;;;17.67;11.63;;;5.70;94.90;;;;;;5058196;28;20238;-92
2022/01/27 08:59:34;;;;;;;24.17;13.80;;;5.70;94.90;;;;;;5058071;28;20210;-90
2022/01/27 09:02:00;;;;;;;23.77;15.83;;;5.80;94.90;;;;;;5058199;28;20179;-91
2022/01/27 09:04:26;;;;;;;21.33;14.03;;;5.80;94.90;;;;;;5057488;28;20166;-88
2022/01/27 09:06:51;;;;;;;15.17;10.07;;;5.80;95.00;;;;;;5058656;28;20186;-91
2022/01/27 09:09:17;;;;;;;19.47;13.30;;;5.80;95.00;;;;;;5058002;28;20207;-90
2022/01/27 09:11:46;;;;;;;16.80;11.67;;;5.80;95.10;;;;;;5058323;28;20170;-90
2022/01/27 09:14:13;;;;;;;14.20;10.57;;;5.80;95.20;;;;;;5058302;28;20151;-90
2022/01/27 09:16:40;;;;;;;17.33;10.47;;;5.80;95.20;;;;;;5058089;28;20174;-89
2022/01/27 09:19:05;;;;;;;18.10;13.33;;;5.80;95.30;;;;;;5058044;28;20188;-91
2022/01/27 09:21:44;;;;;;;12.70;9.30;;;5.80;95.30;;;;;;5058204;28;20249;-91
2022/01/27 09:24:18;;;;;;;17.87;11.30;;;5.80;95.20;;;;;;5058259;28;20203;-90
2022/01/27 09:29:15;;;;;;;16.60;12.00;;;5.90;95.20;;;;;;5058490;28;20188;-87
2022/01/27 09:31:40;;;;;;;16.87;11.20;;;5.90;95.20;;;;;;5057916;28;20959;-91
2022/01/27 09:34:10;;;;;;;15.33;11.50;;;5.90;95.20;;;;;;5057970;28;20202;-89
2022/01/27 09:36:36;;;;;;;14.67;11.47;;;6.00;95.10;;;;;;5057065;28;20232;-91
2022/01/27 09:39:01;;;;;;;16.47;12.03;;;6.00;95.10;;;;;;5057503;28;20200;-91
2022/01/27 09:41:28;;;;;;;16.23;10.47;;;6.00;95.10;;;;;;5057944;28;20168;-89
2022/01/27 09:43:54;;;;;;;23.23;12.77;;;6.00;95.10;;;;;;5478153;22;20223;-94
2022/01/27 09:46:21;;;;;;;13.07;9.83;;;6.00;95.10;;;;;;5057871;28;20165;-91
2022/01/27 09:48:49;;;;;;;17.40;10.77;;;6.00;95.10;;;;;;5057648;28;20181;-92
2022/01/27 09:51:26;;;;;;;16.20;10.17;;;6.10;95.10;;;;;;5057821;28;20234;-93
2022/01/27 09:53:56;;;;;;;17.67;11.17;;;6.10;95.10;;;;;;5057807;28;20163;-93
2022/01/27 09:56:23;;;;;;;14.87;10.30;;;6.10;95.10;;;;;;5060738;28;20176;-92
2022/01/27 09:58:49;;;;;;;21.53;14.30;;;6.10;95.10;;;;;;5060882;28;20259;-92
2022/01/27 10:01:15;;;;;;;19.17;12.73;;;6.20;95.20;;;;;;5061427;28;20244;-94
2022/01/27 10:03:55;;;;;;;15.97;10.87;;;6.20;95.20;;;;;;5061170;28;20204;-95
2022/01/27 10:06:26;;;;;;;19.50;12.30;;;6.20;95.20;;;;;;5061207;28;20183;-93
2022/01/27 10:09:24;;;;;;;24.93;14.43;;;6.30;95.20;;;;;;5060501;28;20204;-94
2022/01/27 10:11:51;;;;;;;22.90;11.77;;;6.30;95.20;;;;;;5059482;28;20205;-94
2022/01/27 10:14:24;;;;;;;19.37;11.97;;;6.30;95.30;;;;;;5058330;28;20163;-93
2022/01/27 10:16:54;;;;;;;24.67;13.77;;;6.40;95.30;;;;;;5059510;28;20191;-96
2022/01/27 10:19:22;;;;;;;24.60;14.53;;;6.40;95.30;;;;;;5058159;28;20177;-95
2022/01/27 10:21:50;;;;;;;18.63;10.00;;;6.40;95.30;;;;;;5059482;28;20189;-92
2022/01/27 10:24:24;;;;;;;26.43;13.40;;;6.50;95.30;;;;;;5060021;28;20161;-95
2022/01/27 10:27:45;;;;;;;24.10;12.70;;;6.50;95.40;;;;;;5060712;28;20164;-95
2022/01/27 10:32:52;;;;;;;41.57;12.90;;;6.70;95.50;;;;;;5061509;28;20157;-96
2022/01/27 10:35:25;;;;;;;28.73;11.13;;;6.80;95.50;;;;;;5060864;28;20224;-96
2022/01/27 10:38:02;;;;;;;32.80;11.13;;;6.90;95.50;;;;;;5057375;28;20181;-93
2022/01/27 10:40:40;;;;;;;47.30;11.03;;;7.00;95.50;;;;;;5058949;28;20168;-95
2022/01/27 10:43:22;;;;;;;36.20;12.03;;;7.10;95.40;;;;;;5048584;28;20187;-93
2022/01/27 10:46:10;;;;;;;44.07;9.60;;;7.10;95.40;;;;;;5059396;28;20197;-94
2022/01/27 10:48:41;;;;;;;36.70;9.70;;;7.20;95.40;;;;;;5054965;28;20197;-94
2022/01/27 10:51:19;;;;;;;32.97;9.67;;;7.30;95.30;;;;;;5053395;28;20196;-95
2022/01/27 10:53:46;;;;;;;40.23;9.80;;;7.30;95.20;;;;;;5055048;28;20199;-93
2022/01/27 10:56:18;;;;;;;39.47;9.40;;;7.50;95.00;;;;;;5051755;28;20187;-93
2022/01/27 10:58:44;;;;;;;34.20;7.77;;;7.50;94.60;;;;;;5056541;28;20200;-93
2022/01/27 11:01:10;;;;;;;50.07;9.77;;;7.60;94.50;;;;;;5060213;28;20172;-95
2022/01/27 11:03:36;;;;;;;37.20;8.17;;;7.60;94.20;;;;;;5058693;28;20175;-94
2022/01/27 11:06:09;;;;;;;51.00;9.67;;;7.60;94.20;;;;;;5051893;28;20192;-93
2022/01/27 11:08:37;;;;;;;39.70;7.77;;;7.70;94.00;;;;;;5049830;28;20196;-93
2022/01/27 11:11:04;;;;;;;40.23;7.87;;;7.70;93.70;;;;;;5053823;28;20199;-94
2022/01/27 11:13:33;;;;;;;42.93;8.70;;;7.70;93.50;;;;;;5049880;28;20160;-94
2022/01/27 11:15:59;;;;;;;35.13;7.53;;;7.80;93.30;;;;;;5058598;28;20175;-96
2022/01/27 11:18:27;;;;;;;24.70;6.03;;;7.80;93.20;;;;;;5059802;28;20189;-96
2022/01/27 11:20:59;;;;;;;31.93;7.20;;;7.80;92.80;;;;;;5059807;28;20223;-96
2022/01/27 11:26:09;;;;;;;41.87;7.13;;;7.90;92.40;;;;;;5056899;28;20197;-93
2022/01/27 11:28:36;;;;;;;39.43;7.50;;;7.90;92.00;;;;;;5038640;28;20200;-93
2022/01/27 11:31:22;;;;;;;49.03;6.73;;;8.00;92.00;;;;;;5034850;28;20665;-93
2022/01/27 11:34:00;;;;;;;36.07;7.33;;;8.10;91.90;;;;;;5037576;28;20200;-93
2022/01/27 11:36:26;;;;;;;40.10;7.03;;;8.10;92.00;;;;;;5038906;28;20198;-93
2022/01/27 11:38:51;;;;;;;42.97;8.73;;;8.10;92.00;;;;;;5034190;28;20280;-93
2022/01/27 11:41:44;;;;;;;36.33;6.77;;;8.00;91.50;;;;;;5037450;28;20181;-93
2022/01/27 11:44:36;;;;;;;40.83;7.60;;;8.30;91.70;;;;;;5050722;28;20192;-94
2022/01/27 11:47:11;;;;;;;33.30;7.23;;;8.30;91.10;;;;;;5044581;28;20177;-94
2022/01/27 11:50:07;;;;;;;38.43;6.87;;;8.30;91.20;;;;;;5038080;28;20207;-93
2022/01/27 11:52:54;;;;;;;34.47;7.57;;;8.40;90.80;;;;;;5035230;28;20153;-92
2022/01/27 11:55:23;;;;;;;30.10;6.37;;;8.50;89.80;;;;;;5033661;28;20259;-91
2022/01/27 11:58:00;;;;;;;27.40;6.50;;;8.50;89.60;;;;;;5034951;28;20196;-92
2022/01/27 12:00:29;;;;;;;21.60;5.73;;;8.60;90.00;;;;;;5050468;28;20165;-94
2022/01/27 12:03:04;;;;;;;24.30;5.80;;;8.70;89.10;;;;;;5057282;28;20165;-94
2022/01/27 12:05:38;;;;;;;38.17;7.87;;;8.50;88.60;;;;;;5057353;28;20157;-94
2022/01/27 12:08:13;;;;;;;32.97;7.43;;;8.60;89.20;;;;;;5054583;28;20204;-94
2022/01/27 12:10:52;;;;;;;27.70;6.57;;;8.50;88.90;;;;;;5057262;28;20188;-94
2022/01/27 12:13:50;;;;;;;40.00;6.67;;;8.50;89.40;;;;;;5054907;28;20252;-94
2022/01/27 12:19:03;;;;;;;32.17;7.03;;;8.30;89.00;;;;;;5056979;28;20185;-94
2022/01/27 12:21:36;;;;;;;44.17;8.13;;;8.30;89.70;;;;;;5058481;28;20180;-94
2022/01/27 12:24:11;;;;;;;36.67;6.77;;;8.20;89.80;;;;;;5056673;28;20168;-94
2022/01/27 12:26:58;;;;;;;31.43;6.37;;;8.10;89.80;;;;;;5052531;28;20211;-94
2022/01/27 12:29:25;;;;;;;38.63;6.80;;;8.10;90.00;;;;;;5047934;28;20218;-93
2022/01/27 12:31:52;;;;;;;36.10;6.13;;;8.00;90.10;;;;;;5040075;28;20248;-94
2022/01/27 12:34:18;;;;;;;37.63;6.67;;;8.00;89.70;;;;;;5036423;28;20180;-93
2022/01/27 12:37:04;;;;;;;48.30;7.90;;;8.00;89.50;;;;;;5036257;28;20172;-93
2022/01/27 12:39:33;;;;;;;42.87;7.07;;;8.00;90.00;;;;;;5036477;28;20204;-93
2022/01/27 12:42:01;;;;;;;24.73;4.73;;;8.20;90.10;;;;;;5036600;28;20231;-93
2022/01/27 12:44:28;;;;;;;37.20;5.83;;;8.50;89.30;;;;;;5036288;28;20212;-93
2022/01/27 12:47:14;;;;;;;29.83;5.90;;;8.40;89.20;;;;;;5034463;28;20605;-93
2022/01/27 12:49:48;;;;;;;31.03;6.23;;;8.30;89.20;;;;;;5034881;28;20197;-93
2022/01/27 12:52:20;;;;;;;22.70;5.07;;;8.30;89.40;;;;;;5035051;28;20173;-92
2022/01/27 12:55:10;;;;;;;32.17;6.30;;;8.30;88.90;;;;;;5038769;28;20625;-92
2022/01/27 12:57:35;;;;;;;15.17;3.90;;;8.30;88.80;;;;;;5035105;28;20197;-93
2022/01/27 13:00:49;;;;;;;28.73;5.83;;;8.20;88.60;;;;;;5034993;28;20235;-93
2022/01/27 13:03:21;;;;;;;39.87;6.80;;;8.20;88.50;;;;;;4971937;28;20192;-92
2022/01/27 13:05:50;;;;;;;33.87;5.93;;;8.20;88.50;;;;;;5035584;28;20184;-92
2022/01/27 13:08:42;;;;;;;26.87;6.07;;;8.20;88.60;;;;;;5039790;28;20200;-92
2022/01/27 13:11:11;;;;;;;26.00;5.60;;;8.20;88.30;;;;;;5037694;28;20268;-93
2022/01/27 13:13:40;;;;;;;34.83;6.17;;;8.30;86.40;;;;;;5042132;28;20260;-91
2022/01/27 13:16:12;;;;;;;20.47;4.93;;;8.30;86.50;;;;;;5033568;28;20177;-93
2022/01/27 13:21:49;;;;;;;27.20;5.10;;;8.40;85.60;;;;;;5033244;28;20226;-93
2022/01/27 13:24:18;;;;;;;34.33;5.97;;;8.30;85.30;;;;;;5034376;28;20277;-93
2022/01/27 13:26:45;;;;;;;31.20;5.03;;;8.30;85.90;;;;;;5035425;28;20177;-92
2022/01/27 13:29:29;;;;;;;30.80;5.57;;;8.20;86.30;;;;;;5036138;28;20193;-93
2022/01/27 13:31:56;;;;;;;26.73;5.20;;;8.10;86.30;;;;;;5041888;28;20220;-93
2022/01/27 13:34:22;;;;;;;26.57;6.23;;;8.10;85.70;;;;;;5041057;28;20260;-92